createdAt,value
2023-04-15T00:01:58.660Z,100052.70
2023-04-15T00:04:25.945Z,100052.05
2023-04-15T00:06:53.483Z,100058.57
2023-04-15T00:09:21.098Z,100056.70
2023-04-15T00:11:48.070Z,100061.59
2023-04-15T00:14:15.658Z,100070.49
2023-04-15T00:16:44.564Z,100066.77
2023-04-15T00:19:12.319Z,100075.85
2023-04-15T00:21:39.888Z,100069.13
2023-04-15T00:24:07.037Z,100071.95
2023-04-15T00:26:34.090Z,100075.66
2023-04-15T00:29:02.542Z,100080.91
2023-04-15T00:31:30.696Z,100080.88
2023-04-15T00:33:58.592Z,100081.05
2023-04-15T00:36:26.454Z,100080.05
2023-04-15T00:38:54.127Z,100085.88
2023-04-15T00:41:21.121Z,100085.55
2023-04-15T00:43:49.452Z,100092.47
2023-04-15T00:46:16.537Z,100091.90
2023-04-15T00:48:43.461Z,100093.60
2023-04-15T00:51:10.802Z,100095.55
2023-04-15T00:53:37.750Z,100096.45
2023-04-15T00:56:06.659Z,100089.81
2023-04-15T00:58:35.232Z,100096.56
2023-04-15T01:01:02.889Z,100098.54
2023-04-15T01:03:31.411Z,100100.96
2023-04-15T01:06:00.252Z,100110.55
2023-04-15T01:08:29.102Z,100108.52
2023-04-15T01:10:57.120Z,100109.66
2023-04-15T01:13:24.542Z,100106.58
2023-04-15T01:15:52.486Z,100108.05
2023-04-15T01:18:19.984Z,100111.20
2023-04-15T01:20:47.633Z,100110.02
2023-04-15T01:23:14.712Z,100112.73
2023-04-15T01:25:42.037Z,100110.13
2023-04-15T01:28:10.178Z,100112.77
2023-04-15T01:30:37.339Z,100113.48
2023-04-15T01:33:06.750Z,100111.30
2023-04-15T01:35:33.873Z,100107.92
2023-04-15T01:38:06.174Z,100111.80
2023-04-15T01:40:33.847Z,100107.19
2023-04-15T01:43:01.571Z,100111.80
2023-04-15T01:45:28.782Z,100107.27
2023-04-15T01:47:55.985Z,100113.29
2023-04-15T01:50:22.883Z,100116.72
2023-04-15T01:52:52.186Z,100115.30
2023-04-15T01:55:19.120Z,100110.56
2023-04-15T01:57:47.796Z,100112.81
2023-04-15T02:00:14.898Z,100107.74
2023-04-15T02:02:42.466Z,100109.64
2023-04-15T02:05:09.645Z,100109.39
2023-04-15T02:07:38.017Z,100110.81
2023-04-15T02:10:06.589Z,100110.90
2023-04-15T02:12:37.187Z,100116.44
2023-04-15T02:15:04.596Z,100123.35
2023-04-15T02:17:41.137Z,100126.21
2023-04-15T02:20:10.710Z,100132.80
2023-04-15T02:22:37.784Z,100133.27
2023-04-15T02:25:05.164Z,100142.53
2023-04-15T02:27:33.411Z,100146.88
2023-04-15T02:30:01.284Z,100149.55
2023-04-15T02:32:29.257Z,100146.34
2023-04-15T02:35:09.023Z,100146.83
2023-04-15T02:37:40.889Z,100147.34
2023-04-15T02:40:14.512Z,100152.98
2023-04-15T02:42:41.970Z,100154.84
2023-04-15T02:45:12.965Z,100156.65
2023-04-15T02:47:44.075Z,100161.80
2023-04-15T02:50:12.964Z,100165.92
2023-04-15T02:52:41.961Z,100168.19
2023-04-15T02:55:11.686Z,100172.31
2023-04-15T02:57:41.244Z,100171.45
2023-04-15T03:00:11.640Z,100172.02
2023-04-15T03:02:42.458Z,100175.18
2023-04-15T03:05:13.404Z,100173.16
2023-04-15T03:07:44.103Z,100179.14
2023-04-15T03:10:11.825Z,100185.68
2023-04-15T03:12:38.957Z,100188.06
2023-04-15T03:15:09.737Z,100192.93
2023-04-15T03:17:41.655Z,100198.27
2023-04-15T03:20:09.708Z,100201.27
2023-04-15T03:22:39.300Z,100203.98
2023-04-15T03:25:07.213Z,100206.83
2023-04-15T03:27:34.875Z,100208.75
2023-04-15T03:30:09.070Z,100210.02
2023-04-15T03:32:39.100Z,100215.56
2023-04-15T03:35:07.042Z,100213.79
2023-04-15T03:37:35.868Z,100212.05
2023-04-15T03:40:02.933Z,100212.17
2023-04-15T03:42:30.176Z,100213.14
2023-04-15T03:44:59.291Z,100213.02
2023-04-15T03:47:26.392Z,100217.23
2023-04-15T03:49:53.235Z,100217.33
2023-04-15T03:52:20.515Z,100225.77
2023-04-15T03:54:47.924Z,100227.60
2023-04-15T03:57:19.679Z,100225.27
2023-04-15T03:59:48.327Z,100228.14
2023-04-15T04:02:15.691Z,100232.09
2023-04-15T04:04:43.899Z,100233.75
2023-04-15T04:07:18.238Z,100236.01
2023-04-15T04:09:47.295Z,100241.56
2023-04-15T04:12:14.455Z,100244.07
2023-04-15T04:14:45.103Z,100247.67
2023-04-15T04:17:12.756Z,100251.63
2023-04-15T04:19:39.762Z,100253.08
2023-04-15T04:22:09.557Z,100247.93
2023-04-15T04:24:37.290Z,100251.52
2023-04-15T04:27:04.181Z,100253.29
2023-04-15T04:29:33.740Z,100257.39
2023-04-15T04:32:41.877Z,100264.47
2023-04-15T04:35:09.583Z,100265.85
2023-04-15T04:37:39.871Z,100272.20
2023-04-15T04:40:08.493Z,100276.61
2023-04-15T04:42:37.425Z,100277.73
2023-04-15T04:45:09.333Z,100272.85
2023-04-15T04:47:37.567Z,100272.20
2023-04-15T04:50:05.578Z,100273.66
2023-04-15T04:52:33.249Z,100277.55
2023-04-15T04:55:01.225Z,100277.70
2023-04-15T04:57:28.370Z,100277.64
2023-04-15T04:59:59.813Z,100276.73
2023-04-15T05:02:27.829Z,100274.59
2023-04-15T05:04:55.440Z,100276.59
2023-04-15T05:07:29.916Z,100274.42
2023-04-15T05:09:57.450Z,100278.81
2023-04-15T05:12:24.784Z,100283.66
2023-04-15T05:14:52.168Z,100289.20
2023-04-15T05:17:26.067Z,100289.85
2023-04-15T05:19:54.143Z,100290.73
2023-04-15T05:22:22.579Z,100291.73
2023-04-15T05:24:49.898Z,100293.34
2023-04-15T05:27:17.166Z,100293.62
2023-04-15T05:29:44.404Z,100289.66
2023-04-15T05:32:11.780Z,100289.19
2023-04-15T05:34:40.308Z,100298.25
2023-04-15T05:37:07.272Z,100294.19
2023-04-15T05:39:34.481Z,100291.20
2023-04-15T05:42:02.531Z,100296.32
2023-04-15T05:44:30.317Z,100302.66
2023-04-15T05:46:58.120Z,100308.64
2023-04-15T05:49:25.889Z,100311.70
2023-04-15T05:51:53.433Z,100313.20
2023-04-15T05:54:20.482Z,100314.94
2023-04-15T05:56:48.004Z,100317.90
2023-04-15T05:59:15.256Z,100323.04
2023-04-15T06:01:43.250Z,100310.95
2023-04-15T06:04:11.840Z,100314.61
2023-04-15T06:06:39.070Z,100320.62
2023-04-15T06:09:06.520Z,100320.05
2023-04-15T06:11:34.691Z,100323.59
2023-04-15T06:14:02.055Z,100329.77
2023-04-15T06:16:29.784Z,100330.18
2023-04-15T06:18:57.146Z,100331.52
2023-04-15T06:21:24.518Z,100335.86
2023-04-15T06:23:51.595Z,100334.20
2023-04-15T06:26:19.268Z,100342.25
2023-04-15T06:28:46.996Z,100331.15
2023-04-15T06:31:14.570Z,100339.60
2023-04-15T06:33:41.543Z,100336.88
2023-04-15T06:36:08.600Z,100346.63
2023-04-15T06:38:37.797Z,100348.88
2023-04-15T06:41:06.269Z,100354.84
2023-04-15T06:43:33.293Z,100355.05
2023-04-15T06:46:00.560Z,100354.35
2023-04-15T06:48:27.817Z,100360.34
2023-04-15T06:50:57.370Z,100362.65
2023-04-15T06:53:30.549Z,100366.83
2023-04-15T06:55:57.779Z,100372.52
2023-04-15T06:58:24.677Z,100369.59
2023-04-15T07:00:52.992Z,100373.75
2023-04-15T07:03:20.188Z,100370.80
2023-04-15T07:05:47.451Z,100375.45
2023-04-15T07:08:14.916Z,100378.46
2023-04-15T07:10:42.120Z,100377.61
2023-04-15T07:13:09.780Z,100378.80
2023-04-15T07:15:36.815Z,100390.27
2023-04-15T07:18:07.988Z,100390.23
2023-04-15T07:20:34.887Z,100396.03
2023-04-15T07:23:02.324Z,100389.46
2023-04-15T07:25:33.414Z,100391.24
2023-04-15T07:28:00.564Z,100393.77
2023-04-15T07:30:27.524Z,100396.05
2023-04-15T07:32:54.709Z,100399.51
2023-04-15T07:35:21.768Z,100388.84
2023-04-15T07:37:48.750Z,100392.08
2023-04-15T07:40:16.328Z,100398.87
2023-04-15T07:42:49.620Z,100404.23
2023-04-15T07:45:17.000Z,100402.95
2023-04-15T07:47:43.977Z,100412.00
2023-04-15T07:50:14.836Z,100420.30
2023-04-15T07:52:46.684Z,100413.85
2023-04-15T07:55:13.979Z,100419.70
2023-04-15T07:57:41.284Z,100425.11
2023-04-15T08:00:10.022Z,100426.02
2023-04-15T08:02:40.845Z,100427.25
2023-04-15T08:05:09.365Z,100436.70
2023-04-15T08:07:38.006Z,100432.08
2023-04-15T08:10:06.515Z,100432.80
2023-04-15T08:12:34.320Z,100439.65
2023-04-15T08:15:03.006Z,100433.96
2023-04-15T08:17:35.901Z,100439.89
2023-04-15T08:20:05.990Z,100438.98
2023-04-15T08:22:33.621Z,100439.06
2023-04-15T08:25:07.363Z,100442.73
2023-04-15T08:27:39.620Z,100440.74
2023-04-15T08:30:08.077Z,100443.30
2023-04-15T08:32:35.179Z,100449.73
2023-04-15T08:35:08.026Z,100448.13
2023-04-15T08:37:35.427Z,100448.29
2023-04-15T08:40:02.367Z,100439.36
2023-04-15T08:42:45.169Z,100447.30
2023-04-15T08:45:13.429Z,100447.87
2023-04-15T08:47:41.860Z,100438.58
2023-04-15T08:50:09.512Z,100437.10
2023-04-15T08:52:42.373Z,100437.66
2023-04-15T08:55:10.937Z,100438.04
2023-04-15T08:57:39.972Z,100429.73
2023-04-15T09:00:09.472Z,100441.96
2023-04-15T09:02:36.961Z,100447.53
2023-04-15T09:05:06.637Z,100446.76
2023-04-15T09:07:35.845Z,100451.72
2023-04-15T09:10:04.149Z,100458.80
2023-04-15T09:12:36.964Z,100458.44
2023-04-15T09:15:04.313Z,100458.63
2023-04-15T09:17:33.266Z,100469.05
2023-04-15T09:20:10.852Z,100463.80
2023-04-15T09:22:38.187Z,100468.07
2023-04-15T09:25:28.993Z,100460.39
2023-04-15T09:27:59.169Z,100452.16
2023-04-15T09:30:27.545Z,100462.45
2023-04-15T09:32:59.148Z,100465.17
2023-04-15T09:35:27.633Z,100459.66
2023-04-15T09:38:05.465Z,100460.48
2023-04-15T09:40:39.797Z,100453.85
2023-04-15T09:43:13.236Z,100448.95
2023-04-15T09:45:47.342Z,100444.86
2023-04-15T09:48:23.385Z,100445.56
2023-04-15T09:50:50.460Z,100437.12
2023-04-15T09:53:23.277Z,100448.02
2023-04-15T09:59:44.205Z,100448.89
2023-04-15T10:02:11.252Z,100447.54
2023-04-15T10:04:40.163Z,100448.40
2023-04-15T10:07:09.069Z,100451.38
2023-04-15T10:09:35.815Z,100440.11
2023-04-15T10:12:04.883Z,100452.55
2023-04-15T10:14:33.003Z,100450.10
2023-04-15T10:17:01.112Z,100466.16
2023-04-15T10:19:27.426Z,100466.77
2023-04-15T10:21:54.268Z,100464.74
2023-04-15T10:24:20.685Z,100465.91
2023-04-15T10:26:47.560Z,100466.23
2023-04-15T10:29:13.992Z,100465.73
2023-04-15T10:31:40.561Z,100467.83
2023-04-15T10:34:06.865Z,100470.39
2023-04-15T10:36:33.385Z,100468.35
2023-04-15T10:38:59.672Z,100470.72
2023-04-15T10:41:29.246Z,100459.45
2023-04-15T10:43:57.265Z,100461.45
2023-04-15T10:46:39.626Z,100453.46
2023-04-15T10:49:13.406Z,100459.02
2023-04-15T10:51:42.141Z,100460.36
2023-04-15T10:54:15.712Z,100457.92
2023-04-15T10:56:43.312Z,100466.71
2023-04-15T10:59:09.801Z,100464.52
2023-04-15T11:02:02.254Z,100459.61
2023-04-15T11:04:53.918Z,100472.61
2023-04-15T11:07:40.605Z,100474.42
2023-04-15T11:10:12.833Z,100468.88
2023-04-15T11:12:39.906Z,100469.59
2023-04-15T11:15:37.372Z,100465.03
2023-04-15T11:18:16.662Z,100469.90
2023-04-15T11:20:51.542Z,100461.45
2023-04-15T11:23:18.661Z,100463.23
2023-04-15T11:25:45.584Z,100471.33
2023-04-15T11:28:12.869Z,100469.17
2023-04-15T11:30:39.443Z,100466.73
2023-04-15T11:33:11.696Z,100470.98
2023-04-15T11:35:41.320Z,100482.70
2023-04-15T11:38:11.442Z,100480.61
2023-04-15T11:40:37.829Z,100482.31
2023-04-15T11:43:20.989Z,100486.59
2023-04-15T11:45:55.255Z,100483.69
2023-04-15T11:48:29.069Z,100482.63
2023-04-15T11:50:56.648Z,100490.63
2023-04-15T11:53:23.640Z,100496.52
2023-04-15T11:55:51.201Z,100495.30
2023-04-15T11:58:25.238Z,100498.03
2023-04-15T12:00:57.050Z,100498.27
2023-04-15T12:03:25.386Z,100495.19
2023-04-15T12:06:11.034Z,100482.42
2023-04-15T12:09:17.599Z,100486.90
2023-04-15T12:11:46.943Z,100493.13
2023-04-15T12:14:21.975Z,100500.30
2023-04-15T12:16:50.292Z,100500.56
2023-04-15T12:19:25.299Z,100503.92
2023-04-15T12:21:54.108Z,100501.46
2023-04-15T12:24:22.295Z,100502.40
2023-04-15T12:26:53.538Z,100502.10
2023-04-15T12:29:20.541Z,100506.55
2023-04-15T12:32:09.343Z,100509.69
2023-04-15T12:34:55.196Z,100497.23
2023-04-15T12:37:21.471Z,100504.73
2023-04-15T12:39:48.510Z,100499.25
2023-04-15T12:42:15.327Z,100506.48
2023-04-15T12:44:41.646Z,100504.74
2023-04-15T12:47:08.714Z,100499.17
2023-04-15T12:49:35.290Z,100498.98
2023-04-15T12:52:02.001Z,100506.36
2023-04-15T12:54:28.990Z,100510.79
2023-04-15T12:56:55.672Z,100509.83
2023-04-15T12:59:23.359Z,100511.38
2023-04-15T13:01:49.746Z,100508.97
2023-04-15T13:04:16.612Z,100506.98
2023-04-15T13:06:43.044Z,100503.25
2023-04-15T13:09:09.260Z,100509.53
2023-04-15T13:11:37.209Z,100508.23
2023-04-15T13:14:04.722Z,100501.63
2023-04-15T13:16:31.525Z,100507.42
2023-04-15T13:19:02.018Z,100509.05
2023-04-15T13:21:28.499Z,100513.83
2023-04-15T13:23:56.113Z,100518.23
2023-04-15T13:26:22.904Z,100513.61
2023-04-15T13:28:49.312Z,100518.73
2023-04-15T13:31:15.750Z,100508.11
2023-04-15T13:33:42.311Z,100515.89
2023-04-15T13:36:08.927Z,100518.62
2023-04-15T13:38:35.268Z,100516.09
2023-04-15T13:41:01.510Z,100521.34
2023-04-15T13:43:28.787Z,100524.69
2023-04-15T13:45:55.416Z,100520.84
2023-04-15T13:48:22.222Z,100526.09
2023-04-15T13:50:48.549Z,100529.79
2023-04-15T13:53:14.817Z,100521.98
2023-04-15T13:55:42.052Z,100529.11
2023-04-15T13:58:08.839Z,100524.86
2023-04-15T14:00:35.140Z,100523.95
2023-04-15T14:03:01.565Z,100519.68
2023-04-15T14:05:28.033Z,100523.63
2023-04-15T14:07:54.255Z,100516.59
2023-04-15T14:10:20.786Z,100529.36
2023-04-15T14:12:47.238Z,100530.19
2023-04-15T14:15:13.824Z,100533.75
2023-04-15T14:17:41.804Z,100535.48
2023-04-15T14:20:09.354Z,100533.13
2023-04-15T14:22:36.242Z,100529.88
2023-04-15T14:25:02.644Z,100532.26
2023-04-15T14:27:29.346Z,100525.33
2023-04-15T14:29:57.132Z,100528.17
2023-04-15T14:32:24.931Z,100525.34
2023-04-15T14:34:51.526Z,100530.84
2023-04-15T14:37:17.801Z,100525.05
2023-04-15T14:39:44.277Z,100529.88
2023-04-15T14:42:10.782Z,100520.54
2023-04-15T14:44:37.280Z,100520.54
2023-04-15T14:47:03.542Z,100523.58
2023-04-15T14:49:30.086Z,100526.55
2023-04-15T14:51:56.493Z,100523.42
2023-04-15T14:54:22.891Z,100523.02
2023-04-15T14:56:49.281Z,100520.77
2023-04-15T14:59:15.492Z,100518.02
2023-04-15T15:01:41.992Z,100519.28
2023-04-15T15:04:09.874Z,100514.90
2023-04-15T15:06:36.420Z,100522.50
2023-04-15T15:09:04.361Z,100530.88
2023-04-15T15:11:31.156Z,100535.72
2023-04-15T15:13:57.805Z,100526.30
2023-04-15T15:16:24.478Z,100530.79
2023-04-15T15:18:50.798Z,100528.23
2023-04-15T15:21:17.370Z,100529.83
2023-04-15T15:23:44.387Z,100528.30
2023-04-15T15:26:11.521Z,100523.91
2023-04-15T15:28:38.167Z,100523.31
2023-04-15T15:31:05.029Z,100528.41
2023-04-15T15:33:31.403Z,100529.70
2023-04-15T15:35:57.929Z,100524.84
2023-04-15T15:38:24.290Z,100529.05
2023-04-15T15:40:51.488Z,100528.34
2023-04-15T15:43:17.729Z,100534.85
2023-04-15T15:45:44.059Z,100538.38
2023-04-15T15:48:10.401Z,100540.54
2023-04-15T15:50:37.268Z,100538.90
2023-04-15T15:53:03.649Z,100544.19
2023-04-15T15:55:30.298Z,100545.80
2023-04-15T15:57:56.656Z,100547.11
2023-04-15T16:00:24.095Z,100549.35
2023-04-15T16:05:24.344Z,100555.02
2023-04-15T16:07:50.764Z,100557.29
2023-04-15T16:10:17.571Z,100561.26
2023-04-15T16:12:44.213Z,100565.31
2023-04-15T16:15:11.727Z,100568.05
2023-04-15T16:17:38.487Z,100564.89
2023-04-15T16:20:05.861Z,100573.83
2023-04-15T16:22:36.527Z,100577.73
2023-04-15T16:25:29.320Z,100579.80
2023-04-15T16:28:05.558Z,100584.57
2023-04-15T16:30:38.934Z,100584.95
2023-04-15T16:33:05.937Z,100589.32
2023-04-15T16:35:34.649Z,100578.25
2023-04-15T16:38:01.421Z,100583.20
2023-04-15T16:40:27.952Z,100590.91
2023-04-15T16:42:54.530Z,100596.40
2023-04-15T16:45:21.105Z,100601.56
2023-04-15T16:47:47.685Z,100612.21
2023-04-15T16:50:14.039Z,100608.42
2023-04-15T16:52:40.840Z,100621.42
2023-04-15T16:55:07.458Z,100624.00
2023-04-15T16:58:01.172Z,100630.74
2023-04-15T17:00:20.405Z,100633.13
2023-04-15T17:02:47.050Z,100632.14
2023-04-15T17:05:13.510Z,100639.27
2023-04-15T17:07:39.830Z,100649.79
2023-04-15T17:10:07.078Z,100649.81
2023-04-15T17:12:33.695Z,100655.57
2023-04-15T17:15:00.441Z,100657.42
2023-04-15T17:17:26.781Z,100662.13
2023-04-15T17:19:53.831Z,100663.17
2023-04-15T17:22:20.508Z,100664.05
2023-04-15T17:24:46.703Z,100666.02
2023-04-15T17:27:13.011Z,100671.70
2023-04-15T17:29:39.397Z,100672.73
2023-04-15T17:32:05.601Z,100671.81
2023-04-15T17:34:49.841Z,100675.14
2023-04-15T17:37:17.622Z,100674.45
2023-04-15T17:39:44.429Z,100675.67
2023-04-15T17:42:10.966Z,100685.90
2023-04-15T17:44:37.574Z,100690.40
2023-04-15T17:47:03.809Z,100683.29
2023-04-15T17:49:30.689Z,100689.55
2023-04-15T17:51:57.224Z,100691.25
2023-04-15T17:54:24.306Z,100692.81
2023-04-15T17:56:53.358Z,100690.16
2023-04-15T17:59:19.625Z,100686.95
2023-04-15T18:01:46.298Z,100686.30
2023-04-15T18:04:13.004Z,100690.20
2023-04-15T18:06:39.814Z,100689.27
2023-04-15T18:09:06.597Z,100685.11
2023-04-15T18:11:33.893Z,100685.88
2023-04-15T18:14:02.094Z,100693.27
2023-04-15T18:16:29.061Z,100692.86
2023-04-15T18:18:55.408Z,100697.37
2023-04-15T18:21:21.975Z,100695.75
2023-04-15T18:23:48.447Z,100696.11
2023-04-15T18:26:15.142Z,100697.48
2023-04-15T18:28:41.571Z,100701.67
2023-04-15T18:31:09.989Z,100698.86
2023-04-15T18:33:36.936Z,100700.05
2023-04-15T18:36:03.587Z,100699.42
2023-04-15T18:38:30.049Z,100708.45
2023-04-15T18:40:56.424Z,100711.98
2023-04-15T18:43:22.800Z,100713.95
2023-04-15T18:45:51.279Z,100717.73
2023-04-15T18:48:17.806Z,100725.02
2023-04-15T18:50:45.214Z,100724.74
2023-04-15T18:53:11.882Z,100728.40
2023-04-15T18:55:39.015Z,100737.64
2023-04-15T18:58:08.881Z,100739.53
2023-04-15T19:00:39.778Z,100745.17
2023-04-15T19:03:06.580Z,100743.30
2023-04-15T19:05:33.575Z,100747.45
2023-04-15T19:07:59.943Z,100749.66
2023-04-15T19:10:27.487Z,100752.58
2023-04-15T19:12:54.380Z,100750.34
2023-04-15T19:15:20.740Z,100752.16
2023-04-15T19:17:46.996Z,100755.80
2023-04-15T19:20:14.065Z,100752.77
2023-04-15T19:22:41.044Z,100752.58
2023-04-15T19:25:07.543Z,100748.16
2023-04-15T19:27:33.875Z,100747.02
2023-04-15T19:29:59.994Z,100744.16
2023-04-15T19:32:27.627Z,100745.44
2023-04-15T19:34:53.787Z,100742.52
2023-04-15T19:37:20.078Z,100744.88
2023-04-15T19:39:47.318Z,100738.80
2023-04-15T19:42:13.690Z,100740.19
2023-04-15T19:44:42.168Z,100742.67
2023-04-15T19:47:09.332Z,100738.72
2023-04-15T19:49:35.617Z,100738.77
2023-04-15T19:52:03.543Z,100733.99
2023-04-15T19:54:33.377Z,100736.80
2023-04-15T19:57:01.004Z,100738.20
2023-04-15T19:59:27.221Z,100734.90
2023-04-15T20:01:53.471Z,100737.21
2023-04-15T20:04:20.065Z,100737.30
2023-04-15T20:06:46.668Z,100737.14
2023-04-15T20:09:12.913Z,100736.82
2023-04-15T20:12:09.622Z,100742.46
2023-04-15T20:14:26.059Z,100741.20
2023-04-15T20:16:53.264Z,100736.13
2023-04-15T20:19:19.723Z,100744.77
2023-04-15T20:21:46.022Z,100737.06
2023-04-15T20:24:12.501Z,100733.23
2023-04-15T20:26:38.741Z,100732.73
2023-04-15T20:29:05.250Z,100739.66
2023-04-15T20:31:31.832Z,100746.20
2023-04-15T20:33:58.020Z,100745.78
2023-04-15T20:36:24.296Z,100754.63
2023-04-15T20:38:50.724Z,100753.71
2023-04-15T20:41:16.897Z,100758.01
2023-04-15T20:43:43.391Z,100758.70
2023-04-15T20:46:20.226Z,100760.81
2023-04-15T20:48:48.664Z,100760.23
2023-04-15T20:51:14.926Z,100757.00
2023-04-15T20:53:41.489Z,100752.35
2023-04-15T20:56:07.752Z,100748.13
2023-04-15T20:58:34.058Z,100754.93
2023-04-15T21:01:01.435Z,100747.79
2023-04-15T21:03:27.707Z,100748.98
2023-04-15T21:05:54.214Z,100750.14
2023-04-15T21:08:28.379Z,100748.68
2023-04-15T21:10:55.993Z,100753.23
2023-04-15T21:13:22.647Z,100750.96
2023-04-15T21:15:52.580Z,100757.16
2023-04-15T21:18:22.575Z,100761.11
2023-04-15T21:21:01.505Z,100758.38
2023-04-15T21:23:29.879Z,100760.45
2023-04-15T21:25:56.671Z,100761.55
2023-04-15T21:28:23.046Z,100762.80
2023-04-15T21:30:49.543Z,100774.24
2023-04-15T21:33:16.330Z,100776.27
2023-04-15T21:35:42.551Z,100774.45
2023-04-15T21:38:08.956Z,100781.63
2023-04-15T21:40:39.728Z,100778.02
2023-04-15T21:43:07.021Z,100780.94
2023-04-15T21:45:34.260Z,100781.38
2023-04-15T21:48:07.651Z,100783.48
2023-04-15T21:50:37.710Z,100787.38
2023-04-15T21:53:05.894Z,100787.95
2023-04-15T21:55:32.522Z,100786.23
2023-04-15T21:57:58.751Z,100792.61
2023-04-15T22:00:25.099Z,100789.65
2023-04-15T22:02:51.756Z,100787.41
2023-04-15T22:05:18.232Z,100791.88
2023-04-15T22:07:44.898Z,100792.22
2023-04-15T22:10:11.809Z,100788.96
2023-04-15T22:12:41.219Z,100794.15
2023-04-15T22:16:54.790Z,100788.92
2023-04-15T22:19:22.084Z,100792.00
2023-04-15T22:21:50.497Z,100790.51
2023-04-15T22:24:38.792Z,100796.86
2023-04-15T22:27:05.897Z,100791.42
2023-04-15T22:29:34.188Z,100793.17
2023-04-15T22:32:01.547Z,100791.14
2023-04-15T22:34:28.673Z,100789.89
2023-04-15T22:36:56.335Z,100789.26
2023-04-15T22:39:23.398Z,100791.58
2023-04-15T22:41:50.680Z,100788.02
2023-04-15T22:44:17.859Z,100788.25
2023-04-15T22:46:45.758Z,100786.67
2023-04-15T22:49:13.007Z,100785.81
2023-04-15T22:51:40.070Z,100790.71
2023-04-15T22:54:07.238Z,100789.90
2023-04-15T22:56:34.499Z,100789.48
2023-04-15T22:59:01.955Z,100796.54
2023-04-15T23:01:29.393Z,100803.20
2023-04-15T23:04:09.116Z,100803.71
2023-04-15T23:06:43.835Z,100803.77
2023-04-15T23:09:11.434Z,100806.58
2023-04-15T23:11:39.979Z,100810.40
2023-04-15T23:14:07.336Z,100808.84
2023-04-15T23:16:35.410Z,100810.31
2023-04-15T23:19:02.694Z,100810.14
2023-04-15T23:21:30.025Z,100812.52
2023-04-15T23:23:57.257Z,100806.44
2023-04-15T23:26:24.405Z,100799.22
2023-04-15T23:28:51.459Z,100796.59
2023-04-15T23:31:18.450Z,100790.75
2023-04-15T23:33:45.885Z,100794.42
2023-04-15T23:36:13.115Z,100802.77
2023-04-15T23:38:42.200Z,100798.73
2023-04-15T23:41:10.305Z,100795.55
2023-04-15T23:43:37.855Z,100791.55
2023-04-15T23:46:04.998Z,100794.46
2023-04-15T23:48:31.989Z,100798.11
2023-04-15T23:50:59.324Z,100804.46
2023-04-15T23:53:26.692Z,100804.94
2023-04-15T23:55:53.653Z,100813.00
2023-04-15T23:58:21.035Z,100815.36
